createdAt,value
2023-12-12T00:01:58.511Z,10.69
2023-12-12T00:04:25.148Z,10.64
2023-12-12T00:06:51.668Z,10.57
2023-12-12T00:09:18.168Z,10.55
2023-12-12T00:11:44.625Z,10.50
2023-12-12T00:14:11.458Z,10.46
2023-12-12T00:16:37.971Z,10.41
2023-12-12T00:19:04.692Z,10.37
2023-12-12T00:21:31.220Z,10.37
2023-12-12T00:23:57.735Z,10.37
2023-12-12T00:26:24.281Z,10.42
2023-12-12T00:28:50.879Z,10.45
2023-12-12T00:31:17.452Z,10.48
2023-12-12T00:33:44.098Z,10.50
2023-12-12T00:36:10.662Z,10.48
2023-12-12T00:38:37.537Z,10.51
2023-12-12T00:41:05.421Z,10.53
2023-12-12T00:43:32.213Z,10.48
2023-12-12T00:45:58.771Z,10.46
2023-12-12T00:48:25.498Z,10.57
2023-12-12T00:50:52.210Z,10.49
2023-12-12T00:53:19.023Z,10.50
2023-12-12T00:55:45.535Z,10.53
2023-12-12T00:58:12.048Z,10.51
2023-12-12T01:00:38.721Z,10.56
2023-12-12T01:03:05.305Z,10.55
2023-12-12T01:05:31.858Z,10.53
2023-12-12T01:07:58.401Z,10.54
2023-12-12T01:10:25.028Z,10.53
2023-12-12T01:12:51.900Z,10.50
2023-12-12T01:15:18.438Z,10.53
2023-12-12T01:17:45.121Z,10.58
2023-12-12T01:20:11.901Z,10.53
2023-12-12T01:22:38.511Z,10.55
2023-12-12T01:25:06.849Z,10.56
2023-12-12T01:27:33.493Z,10.61
2023-12-12T01:30:00.128Z,10.63
2023-12-12T01:32:26.849Z,10.62
2023-12-12T01:34:53.581Z,10.63
2023-12-12T01:37:20.191Z,10.63
2023-12-12T01:39:46.706Z,10.66
2023-12-12T01:42:13.228Z,10.74
2023-12-12T01:44:39.703Z,10.74
2023-12-12T01:47:06.948Z,10.75
2023-12-12T01:49:33.781Z,10.71
2023-12-12T01:52:00.493Z,10.76
2023-12-12T01:54:27.474Z,10.81
2023-12-12T01:56:55.013Z,10.83
2023-12-12T01:59:23.520Z,10.81
2023-12-12T02:01:50.461Z,10.79
2023-12-12T02:04:18.574Z,10.76
2023-12-12T02:06:48.352Z,10.72
2023-12-12T02:09:16.582Z,10.70
2023-12-12T02:11:43.701Z,10.77
2023-12-12T02:14:11.335Z,10.79
2023-12-12T02:16:38.285Z,10.77
2023-12-12T02:19:05.105Z,10.80
2023-12-12T02:21:31.711Z,10.86
2023-12-12T02:23:58.233Z,10.87
2023-12-12T02:26:24.928Z,10.89
2023-12-12T02:28:51.765Z,10.90
2023-12-12T02:31:18.550Z,10.92
2023-12-12T02:33:45.186Z,10.96
2023-12-12T02:36:11.813Z,10.99
2023-12-12T02:38:38.374Z,11.01
2023-12-12T02:41:04.911Z,11.00
2023-12-12T02:43:31.635Z,10.97
2023-12-12T02:45:58.241Z,10.91
2023-12-12T02:48:25.047Z,10.78
2023-12-12T02:50:51.736Z,10.67
2023-12-12T02:53:18.246Z,10.55
2023-12-12T02:55:45.195Z,10.44
2023-12-12T02:58:11.964Z,10.35
2023-12-12T03:00:38.641Z,10.25
2023-12-12T03:03:05.210Z,10.11
2023-12-12T03:05:32.176Z,10.06
2023-12-12T03:07:58.695Z,10.02
2023-12-12T03:10:25.326Z,9.99
2023-12-12T03:12:52.005Z,9.91
2023-12-12T03:15:18.924Z,9.86
2023-12-12T03:17:45.429Z,9.85
2023-12-12T03:20:12.477Z,9.82
2023-12-12T03:22:38.949Z,9.73
2023-12-12T03:25:06.658Z,9.68
2023-12-12T03:27:33.344Z,9.62
2023-12-12T03:30:00.162Z,9.59
2023-12-12T03:32:26.652Z,9.57
2023-12-12T03:34:53.841Z,9.54
2023-12-12T03:37:20.402Z,9.44
2023-12-12T03:39:46.905Z,9.39
2023-12-12T03:42:13.427Z,9.42
2023-12-12T03:44:39.970Z,9.46
2023-12-12T03:47:06.513Z,9.46
2023-12-12T03:49:33.025Z,9.44
2023-12-12T03:51:59.729Z,9.46
2023-12-12T03:54:26.946Z,9.38
2023-12-12T03:56:53.481Z,9.40
2023-12-12T03:59:19.932Z,9.39
2023-12-12T04:01:50.040Z,9.43
2023-12-12T04:04:19.761Z,9.44
2023-12-12T04:06:47.712Z,9.49
2023-12-12T04:09:14.240Z,9.56
2023-12-12T04:11:40.714Z,9.61
2023-12-12T04:14:07.221Z,9.60
2023-12-12T04:16:34.033Z,9.52
2023-12-12T04:19:00.791Z,9.47
2023-12-12T04:21:27.519Z,9.47
2023-12-12T04:23:53.976Z,9.49
2023-12-12T04:26:20.484Z,9.52
2023-12-12T04:28:46.996Z,9.57
2023-12-12T04:31:18.120Z,9.46
2023-12-12T04:33:44.937Z,9.41
2023-12-12T04:36:15.747Z,9.40
2023-12-12T04:38:43.306Z,9.42
2023-12-12T04:41:10.076Z,9.41
2023-12-12T04:43:36.946Z,9.35
2023-12-12T04:46:04.276Z,9.33
2023-12-12T04:48:31.247Z,9.31
2023-12-12T04:50:58.106Z,9.29
2023-12-12T04:53:24.850Z,9.31
2023-12-12T04:55:51.326Z,9.30
2023-12-12T04:58:18.061Z,9.34
2023-12-12T05:00:44.813Z,9.40
2023-12-12T05:03:11.393Z,9.47
2023-12-12T05:05:37.927Z,9.48
2023-12-12T05:08:05.167Z,9.53
2023-12-12T05:10:31.826Z,9.53
2023-12-12T05:12:58.518Z,9.53
2023-12-12T05:15:25.223Z,9.46
2023-12-12T05:17:51.880Z,9.36
2023-12-12T05:20:18.797Z,9.24
2023-12-12T05:22:45.515Z,9.07
2023-12-12T05:25:12.621Z,8.96
2023-12-12T05:27:39.181Z,8.93
2023-12-12T05:30:06.674Z,8.95
2023-12-12T05:32:33.292Z,8.98
2023-12-12T05:34:59.922Z,9.02
2023-12-12T05:37:26.453Z,8.95
2023-12-12T05:39:53.195Z,8.92
2023-12-12T05:42:20.081Z,8.88
2023-12-12T05:44:46.565Z,8.82
2023-12-12T05:47:13.160Z,8.83
2023-12-12T05:49:39.695Z,8.89
2023-12-12T05:52:06.991Z,8.97
2023-12-12T05:54:33.625Z,9.06
2023-12-12T05:57:00.579Z,9.11
2023-12-12T05:59:27.165Z,9.12
2023-12-12T06:01:53.634Z,9.14
2023-12-12T06:04:20.341Z,9.13
2023-12-12T06:06:46.910Z,9.06
2023-12-12T06:09:14.367Z,8.98
2023-12-12T06:11:43.333Z,8.96
2023-12-12T06:14:10.356Z,8.93
2023-12-12T06:16:38.078Z,8.80
2023-12-12T06:19:06.587Z,8.72
2023-12-12T06:21:34.436Z,8.63
2023-12-12T06:24:03.531Z,8.65
2023-12-12T06:26:31.509Z,8.71
2023-12-12T06:28:58.129Z,8.76
2023-12-12T06:31:25.052Z,8.75
2023-12-12T06:33:53.313Z,8.78
2023-12-12T06:36:20.522Z,8.76
2023-12-12T06:38:47.428Z,8.73
2023-12-12T06:41:14.172Z,8.75
2023-12-12T06:43:41.117Z,8.74
2023-12-12T06:46:09.382Z,8.72
2023-12-12T06:48:38.286Z,8.66
2023-12-12T06:51:05.971Z,8.58
2023-12-12T06:53:32.421Z,8.43
2023-12-12T06:55:59.133Z,8.31
2023-12-12T06:58:25.875Z,8.22
2023-12-12T07:00:53.076Z,8.08
2023-12-12T07:03:20.157Z,8.07
2023-12-12T07:05:46.954Z,8.08
2023-12-12T07:08:13.586Z,8.07
2023-12-12T07:10:40.190Z,8.00
2023-12-12T07:13:07.129Z,7.94
2023-12-12T07:15:34.632Z,7.90
2023-12-12T07:18:01.274Z,7.88
2023-12-12T07:20:27.888Z,7.86
2023-12-12T07:22:54.564Z,7.85
2023-12-12T07:25:21.808Z,7.90
2023-12-12T07:27:48.530Z,7.94
2023-12-12T07:30:15.175Z,7.96
2023-12-12T07:32:41.881Z,7.99
2023-12-12T07:35:09.422Z,8.04
2023-12-12T07:37:36.359Z,8.08
2023-12-12T07:40:05.423Z,8.12
2023-12-12T07:42:32.072Z,8.18
2023-12-12T07:44:59.170Z,8.17
2023-12-12T07:47:34.093Z,8.26
2023-12-12T07:50:09.885Z,8.22
2023-12-12T07:52:37.333Z,8.29
2023-12-12T07:55:03.961Z,8.37
2023-12-12T07:57:30.761Z,8.50
2023-12-12T07:59:57.467Z,8.64
2023-12-12T08:02:24.298Z,8.63
2023-12-12T08:04:51.178Z,8.75
2023-12-12T08:07:17.899Z,8.76
2023-12-12T08:09:44.529Z,8.81
2023-12-12T08:12:11.003Z,8.70
2023-12-12T08:14:39.975Z,8.69
2023-12-12T08:17:08.612Z,8.67
2023-12-12T08:19:35.305Z,8.76
2023-12-12T08:22:03.189Z,8.77
2023-12-12T08:24:29.741Z,8.83
2023-12-12T08:26:56.491Z,8.89
2023-12-12T08:29:23.116Z,8.97
2023-12-12T08:31:49.694Z,9.00
2023-12-12T08:34:16.428Z,9.16
2023-12-12T08:36:43.126Z,9.21
2023-12-12T08:39:09.692Z,9.27
2023-12-12T08:41:39.052Z,9.35
2023-12-12T08:44:05.590Z,9.36
2023-12-12T08:46:32.152Z,9.25
2023-12-12T08:48:59.700Z,9.19
2023-12-12T08:51:31.604Z,9.23
2023-12-12T08:54:02.398Z,9.32
2023-12-12T08:56:29.067Z,9.56
2023-12-12T08:58:56.203Z,9.75
2023-12-12T09:01:23.788Z,9.99
2023-12-12T09:03:50.615Z,10.21
2023-12-12T09:06:17.394Z,10.10
2023-12-12T09:08:44.432Z,10.05
2023-12-12T09:11:14.433Z,10.00
2023-12-12T09:13:43.796Z,9.86
2023-12-12T09:16:10.635Z,9.71
2023-12-12T09:18:37.933Z,9.68
2023-12-12T09:21:05.609Z,9.77
2023-12-12T09:23:32.262Z,9.70
2023-12-12T09:25:58.751Z,9.73
2023-12-12T09:28:25.743Z,9.67
2023-12-12T09:30:52.279Z,9.55
2023-12-12T09:33:18.979Z,9.65
2023-12-12T09:35:45.733Z,9.75
2023-12-12T09:38:12.493Z,9.72
2023-12-12T09:40:40.688Z,9.76
2023-12-12T09:43:12.426Z,9.63
2023-12-12T09:45:45.608Z,9.66
2023-12-12T09:48:13.123Z,9.63
2023-12-12T09:50:40.386Z,9.67
2023-12-12T09:53:06.955Z,9.78
2023-12-12T09:55:33.698Z,9.92
2023-12-12T09:58:00.429Z,9.91
2023-12-12T10:00:26.934Z,10.09
2023-12-12T10:02:58.445Z,10.08
2023-12-12T10:05:27.733Z,9.99
2023-12-12T10:08:00.710Z,9.85
2023-12-12T10:10:32.644Z,9.96
2023-12-12T10:12:59.275Z,10.02
2023-12-12T10:15:27.946Z,10.03
2023-12-12T10:17:59.303Z,10.11
2023-12-12T10:20:32.888Z,10.10
2023-12-12T10:23:01.902Z,10.10
2023-12-12T10:25:30.174Z,10.26
2023-12-12T10:27:58.680Z,10.15
2023-12-12T10:30:25.749Z,10.09
2023-12-12T10:32:53.771Z,10.07
2023-12-12T10:35:22.156Z,10.04
2023-12-12T10:37:49.754Z,9.98
2023-12-12T10:40:23.551Z,9.88
2023-12-12T10:42:51.324Z,9.92
2023-12-12T10:45:18.655Z,9.89
2023-12-12T10:47:50.904Z,9.69
2023-12-12T10:50:19.082Z,9.67
2023-12-12T10:52:47.793Z,9.68
2023-12-12T10:55:16.359Z,9.55
2023-12-12T10:57:45.743Z,9.46
2023-12-12T11:00:17.619Z,9.38
2023-12-12T11:02:46.706Z,9.28
2023-12-12T11:05:15.074Z,9.14
2023-12-12T11:07:43.824Z,9.10
2023-12-12T11:10:13.627Z,9.25
2023-12-12T11:12:45.034Z,9.15
2023-12-12T11:15:14.271Z,9.12
2023-12-12T11:17:41.243Z,9.09
2023-12-12T11:20:13.726Z,9.16
2023-12-12T11:22:46.340Z,9.33
2023-12-12T11:25:20.891Z,9.35
2023-12-12T11:27:55.199Z,9.46
2023-12-12T11:30:33.150Z,9.35
2023-12-12T11:33:00.000Z,9.40
2023-12-12T11:35:32.718Z,9.42
2023-12-12T11:38:03.645Z,9.47
2023-12-12T11:40:31.806Z,9.48
2023-12-12T11:43:23.370Z,9.52
2023-12-12T11:45:50.931Z,9.51
2023-12-12T11:48:18.370Z,9.63
2023-12-12T11:50:47.020Z,9.67
2023-12-12T11:53:39.667Z,9.67
2023-12-12T11:56:06.792Z,9.72
2023-12-12T11:58:33.390Z,9.61
2023-12-12T12:01:00.056Z,9.60
2023-12-12T12:03:26.945Z,9.74
2023-12-12T12:05:53.946Z,9.87
2023-12-12T12:08:22.145Z,9.99
2023-12-12T12:10:59.490Z,10.15
2023-12-12T12:13:41.140Z,10.37
2023-12-12T12:16:11.917Z,10.53
2023-12-12T12:18:39.252Z,10.66
2023-12-12T12:21:09.179Z,10.76
2023-12-12T12:23:40.374Z,10.80
2023-12-12T12:26:07.476Z,10.84
2023-12-12T12:28:34.908Z,10.92
2023-12-12T12:31:03.116Z,10.91
2023-12-12T12:33:38.726Z,10.84
2023-12-12T12:36:06.844Z,10.85
2023-12-12T12:38:33.896Z,10.86
2023-12-12T12:41:00.907Z,10.90
2023-12-12T12:43:27.760Z,10.92
2023-12-12T12:45:55.300Z,10.87
2023-12-12T12:48:23.477Z,10.84
2023-12-12T12:50:51.165Z,10.83
2023-12-12T12:53:18.714Z,10.78
2023-12-12T12:55:46.011Z,10.82
2023-12-12T12:58:14.080Z,10.83
2023-12-12T13:00:45.371Z,10.86
2023-12-12T13:03:13.617Z,10.90
2023-12-12T13:05:40.366Z,10.94
2023-12-12T13:08:06.909Z,10.96
2023-12-12T13:10:43.242Z,10.92
2023-12-12T13:13:14.903Z,10.97
2023-12-12T13:15:41.779Z,10.95
2023-12-12T13:18:08.359Z,10.84
2023-12-12T13:20:34.951Z,10.74
2023-12-12T13:23:01.526Z,10.67
2023-12-12T13:25:28.196Z,10.61
2023-12-12T13:27:54.714Z,10.50
2023-12-12T13:30:22.012Z,10.28
2023-12-12T13:32:48.874Z,10.00
2023-12-12T13:35:27.082Z,9.75
2023-12-12T13:38:02.225Z,9.68
2023-12-12T13:40:29.142Z,9.51
2023-12-12T13:42:55.769Z,9.32
2023-12-12T13:45:22.225Z,9.39
2023-12-12T13:47:48.942Z,9.49
2023-12-12T13:50:15.732Z,9.43
2023-12-12T13:52:42.825Z,9.47
2023-12-12T13:55:09.542Z,9.51
2023-12-12T13:57:36.178Z,9.66
2023-12-12T14:00:03.581Z,9.57
2023-12-12T14:02:33.581Z,9.52
2023-12-12T14:05:03.320Z,9.65
2023-12-12T14:07:30.635Z,9.79
2023-12-12T14:09:57.341Z,9.80
2023-12-12T14:12:23.861Z,9.77
2023-12-12T14:14:50.405Z,9.83
2023-12-12T14:17:17.031Z,9.90
2023-12-12T14:19:43.928Z,9.89
2023-12-12T14:22:13.557Z,9.84
2023-12-12T14:24:41.649Z,9.89
2023-12-12T14:27:08.479Z,9.95
2023-12-12T14:29:35.588Z,9.78
2023-12-12T14:32:02.712Z,9.71
2023-12-12T14:34:29.512Z,9.80
2023-12-12T14:36:56.202Z,9.92
2023-12-12T14:39:23.440Z,10.03
2023-12-12T14:41:50.089Z,10.17
2023-12-12T14:44:16.619Z,10.28
2023-12-12T14:46:43.137Z,10.41
2023-12-12T14:49:09.908Z,10.45
2023-12-12T14:51:36.462Z,10.51
2023-12-12T14:54:05.148Z,10.60
2023-12-12T14:56:33.604Z,10.66
2023-12-12T14:59:00.505Z,10.72
2023-12-12T15:01:27.928Z,10.72
2023-12-12T15:03:54.795Z,10.72
2023-12-12T15:06:21.764Z,10.71
2023-12-12T15:08:48.621Z,10.72
2023-12-12T15:11:15.140Z,10.81
2023-12-12T15:13:41.814Z,10.87
2023-12-12T15:16:12.530Z,10.80
2023-12-12T15:18:40.476Z,10.74
2023-12-12T15:21:12.406Z,10.71
2023-12-12T15:23:40.846Z,10.78
2023-12-12T15:26:07.426Z,10.83
2023-12-12T15:28:34.639Z,10.85
2023-12-12T15:31:02.625Z,10.88
2023-12-12T15:33:32.189Z,10.90
2023-12-12T15:35:59.869Z,10.97
2023-12-12T15:38:27.332Z,10.99
2023-12-12T15:40:54.063Z,10.94
2023-12-12T15:43:20.863Z,10.86
2023-12-12T15:45:47.615Z,10.63
2023-12-12T15:48:14.406Z,10.40
2023-12-12T15:50:41.074Z,10.35
2023-12-12T15:53:08.590Z,10.30
2023-12-12T15:55:35.213Z,10.24
2023-12-12T15:58:01.880Z,10.27
2023-12-12T16:00:29.787Z,10.29
2023-12-12T16:02:56.534Z,10.27
2023-12-12T16:05:23.743Z,10.29
2023-12-12T16:07:50.899Z,10.38
2023-12-12T16:10:17.580Z,10.30
2023-12-12T16:12:44.221Z,10.24
2023-12-12T16:15:11.842Z,10.21
2023-12-12T16:17:39.692Z,10.11
2023-12-12T16:20:08.479Z,10.25
2023-12-12T16:22:37.287Z,10.31
2023-12-12T16:25:06.806Z,10.31
2023-12-12T16:27:34.772Z,10.35
2023-12-12T16:30:01.500Z,10.43
2023-12-12T16:32:27.991Z,10.51
2023-12-12T16:34:54.527Z,10.50
2023-12-12T16:37:21.132Z,10.53
2023-12-12T16:39:47.672Z,10.55
2023-12-12T16:42:17.364Z,10.55
2023-12-12T16:44:44.244Z,10.53
2023-12-12T16:47:11.548Z,10.50
2023-12-12T16:49:38.325Z,10.39
2023-12-12T16:52:05.541Z,10.39
2023-12-12T16:54:32.299Z,10.41
2023-12-12T16:57:01.907Z,10.39
2023-12-12T16:59:29.510Z,10.45
2023-12-12T17:01:58.120Z,10.57
2023-12-12T17:04:30.535Z,10.55
2023-12-12T17:06:57.408Z,10.46
2023-12-12T17:09:24.586Z,10.48
2023-12-12T17:11:51.095Z,10.57
2023-12-12T17:14:17.574Z,10.57
2023-12-12T17:16:45.036Z,10.62
2023-12-12T17:19:12.573Z,10.68
2023-12-12T17:21:39.440Z,10.75
2023-12-12T17:24:06.808Z,10.85
2023-12-12T17:26:33.357Z,10.97
2023-12-12T17:28:59.964Z,11.08
2023-12-12T17:31:26.737Z,11.18
2023-12-12T17:33:54.488Z,11.24
2023-12-12T17:36:21.206Z,11.24
2023-12-12T17:38:47.727Z,11.33
2023-12-12T17:41:16.664Z,11.38
2023-12-12T17:43:44.244Z,11.36
2023-12-12T17:46:11.024Z,11.13
2023-12-12T17:48:38.567Z,10.98
2023-12-12T17:51:05.995Z,10.89
2023-12-12T17:53:32.460Z,10.84
2023-12-12T17:56:02.639Z,10.78
2023-12-12T17:58:29.622Z,10.78
2023-12-12T18:00:56.593Z,10.82
2023-12-12T18:03:23.840Z,10.84
2023-12-12T18:05:52.643Z,10.89
2023-12-12T18:08:19.791Z,10.91
2023-12-12T18:10:46.469Z,10.78
2023-12-12T18:13:13.639Z,10.49
2023-12-12T18:15:40.266Z,10.63
2023-12-12T18:18:10.998Z,10.42
2023-12-12T18:20:38.694Z,10.37
2023-12-12T18:23:06.327Z,10.42
2023-12-12T18:25:33.728Z,10.45
2023-12-12T18:28:03.063Z,10.51
2023-12-12T18:30:30.864Z,10.51
2023-12-12T18:32:59.929Z,10.58
2023-12-12T18:35:27.469Z,10.69
2023-12-12T18:37:53.912Z,10.71
2023-12-12T18:40:23.304Z,10.64
2023-12-12T18:42:49.922Z,10.67
2023-12-12T18:45:17.194Z,10.49
2023-12-12T18:47:44.418Z,10.51
2023-12-12T18:50:11.847Z,10.51
2023-12-12T18:52:38.969Z,10.44
2023-12-12T18:55:06.730Z,10.39
2023-12-12T18:57:34.370Z,10.50
2023-12-12T19:00:01.780Z,10.43
2023-12-12T19:02:28.354Z,10.40
2023-12-12T19:04:55.054Z,10.26
2023-12-12T19:07:21.853Z,10.33
2023-12-12T19:09:49.021Z,10.36
2023-12-12T19:12:15.598Z,10.48
2023-12-12T19:14:44.462Z,10.47
2023-12-12T19:17:11.037Z,10.44
2023-12-12T19:19:41.139Z,10.41
2023-12-12T19:22:08.359Z,10.40
2023-12-12T19:24:35.686Z,10.33
2023-12-12T19:27:02.598Z,10.17
2023-12-12T19:29:30.840Z,10.24
2023-12-12T19:31:57.573Z,10.31
2023-12-12T19:34:24.470Z,10.29
2023-12-12T19:36:51.187Z,10.39
2023-12-12T19:39:17.815Z,10.42
2023-12-12T19:41:46.408Z,10.46
2023-12-12T19:44:13.246Z,10.46
2023-12-12T19:46:47.629Z,10.37
2023-12-12T19:49:15.489Z,10.43
2023-12-12T19:51:51.917Z,10.37
2023-12-12T19:54:18.674Z,10.43
2023-12-12T19:56:45.527Z,10.45
2023-12-12T19:59:12.873Z,10.44
2023-12-12T20:01:39.488Z,10.40
2023-12-12T20:04:06.388Z,10.38
2023-12-12T20:06:32.971Z,10.44
2023-12-12T20:08:59.469Z,10.44
2023-12-12T20:11:26.905Z,10.44
2023-12-12T20:13:53.729Z,10.49
2023-12-12T20:16:24.299Z,10.52
2023-12-12T20:18:52.156Z,10.58
2023-12-12T20:21:22.105Z,10.58
2023-12-12T20:23:52.567Z,10.62
2023-12-12T20:26:19.477Z,10.69
2023-12-12T20:28:49.176Z,10.60
2023-12-12T20:31:16.626Z,10.56
2023-12-12T20:33:43.457Z,10.64
2023-12-12T20:36:10.783Z,10.61
2023-12-12T20:38:38.506Z,10.61
2023-12-12T20:41:07.765Z,10.40
2023-12-12T20:43:34.874Z,10.29
2023-12-12T20:46:01.534Z,10.26
2023-12-12T20:48:28.165Z,10.21
2023-12-12T20:50:55.498Z,10.28
2023-12-12T20:53:22.336Z,10.29
2023-12-12T20:55:49.017Z,10.29
2023-12-12T20:58:15.787Z,10.28
2023-12-12T21:00:42.388Z,10.32
2023-12-12T21:03:10.494Z,10.34
2023-12-12T21:05:37.387Z,10.21
2023-12-12T21:08:04.113Z,10.24
2023-12-12T21:10:30.728Z,10.28
2023-12-12T21:12:57.343Z,10.18
2023-12-12T21:15:26.058Z,10.03
2023-12-12T21:17:53.083Z,10.09
2023-12-12T21:20:19.940Z,10.12
2023-12-12T21:22:47.696Z,10.17
2023-12-12T21:25:14.358Z,10.23
2023-12-12T21:27:40.886Z,10.19
2023-12-12T21:30:08.489Z,10.19
2023-12-12T21:32:35.423Z,10.46
2023-12-12T21:35:03.084Z,10.74
2023-12-12T21:37:31.166Z,10.87
2023-12-12T21:40:02.582Z,10.87
2023-12-12T21:42:29.893Z,10.89
2023-12-12T21:44:58.292Z,10.85
2023-12-12T21:47:25.982Z,10.87
2023-12-12T21:49:52.895Z,10.95
2023-12-12T21:52:20.519Z,11.02
2023-12-12T21:54:47.686Z,11.02
2023-12-12T21:57:14.727Z,11.02
2023-12-12T21:59:41.300Z,10.97
2023-12-12T22:02:08.074Z,11.01
2023-12-12T22:04:34.836Z,11.01
2023-12-12T22:07:01.409Z,10.95
2023-12-12T22:09:27.945Z,10.96
2023-12-12T22:11:55.484Z,11.01
2023-12-12T22:14:22.208Z,11.04
2023-12-12T22:16:48.720Z,11.08
2023-12-12T22:19:15.359Z,11.07
2023-12-12T22:21:42.122Z,11.03
2023-12-12T22:24:08.728Z,10.97
2023-12-12T22:26:35.361Z,11.00
2023-12-12T22:29:04.080Z,10.99
2023-12-12T22:31:30.901Z,10.93
2023-12-12T22:33:57.579Z,10.87
2023-12-12T22:36:24.194Z,10.85
2023-12-12T22:38:51.263Z,10.81
2023-12-12T22:41:21.781Z,10.77
2023-12-12T22:43:49.002Z,10.74
2023-12-12T22:46:18.904Z,10.64
2023-12-12T22:48:45.748Z,10.58
2023-12-12T22:51:16.757Z,10.59
2023-12-12T22:53:43.469Z,10.60
2023-12-12T22:56:13.428Z,10.65
2023-12-12T22:58:43.689Z,10.65
2023-12-12T23:01:11.249Z,10.58
2023-12-12T23:03:37.965Z,10.60
2023-12-12T23:06:07.762Z,10.58
2023-12-12T23:08:35.139Z,10.62
2023-12-12T23:11:02.031Z,10.61
2023-12-12T23:13:28.550Z,10.56
2023-12-12T23:15:55.331Z,10.54
2023-12-12T23:18:21.998Z,10.54
2023-12-12T23:20:49.225Z,10.52
2023-12-12T23:23:15.739Z,10.48
2023-12-12T23:25:42.866Z,10.56
2023-12-12T23:28:10.987Z,10.58
2023-12-12T23:30:38.311Z,10.62
2023-12-12T23:33:04.829Z,10.53
2023-12-12T23:35:31.919Z,10.52
2023-12-12T23:37:58.611Z,10.60
2023-12-12T23:40:25.219Z,10.58
2023-12-12T23:42:51.770Z,10.56
2023-12-12T23:45:22.375Z,10.65
2023-12-12T23:47:55.245Z,10.67
2023-12-12T23:50:21.830Z,10.73
2023-12-12T23:52:48.333Z,10.62
2023-12-12T23:55:16.324Z,10.61
2023-12-12T23:57:44.039Z,10.59
